sensor_id;sensor_type;location;lat;lon;timestamp;P1;durP1;ratioP1;P2;durP2;ratioP2
12910;SDS011;6523;49.758;6.120;2023-01-28T00:01:41;8.07;;;6.50;;
12910;SDS011;6523;49.758;6.120;2023-01-28T00:04:07;9.00;;;7.27;;
12910;SDS011;6523;49.758;6.120;2023-01-28T00:06:33;7.93;;;6.27;;
12910;SDS011;6523;49.758;6.120;2023-01-28T00:08:59;8.73;;;7.07;;
12910;SDS011;6523;49.758;6.120;2023-01-28T00:11:25;8.77;;;7.20;;
12910;SDS011;6523;49.758;6.120;2023-01-28T00:13:51;9.97;;;7.43;;
12910;SDS011;6523;49.758;6.120;2023-01-28T00:16:18;10.07;;;7.73;;
12910;SDS011;6523;49.758;6.120;2023-01-28T00:18:44;9.17;;;7.13;;
12910;SDS011;6523;49.758;6.120;2023-01-28T00:21:10;10.80;;;7.67;;
12910;SDS011;6523;49.758;6.120;2023-01-28T00:23:37;9.27;;;7.47;;
12910;SDS011;6523;49.758;6.120;2023-01-28T00:26:05;8.93;;;7.27;;
12910;SDS011;6523;49.758;6.120;2023-01-28T00:28:34;10.10;;;8.07;;
12910;SDS011;6523;49.758;6.120;2023-01-28T00:31:06;10.03;;;6.87;;
12910;SDS011;6523;49.758;6.120;2023-01-28T00:33:42;8.90;;;7.37;;
12910;SDS011;6523;49.758;6.120;2023-01-28T00:36:09;9.93;;;7.37;;
12910;SDS011;6523;49.758;6.120;2023-01-28T00:38:35;9.77;;;7.87;;
12910;SDS011;6523;49.758;6.120;2023-01-28T00:41:07;9.43;;;7.20;;
12910;SDS011;6523;49.758;6.120;2023-01-28T00:43:34;8.53;;;7.20;;
12910;SDS011;6523;49.758;6.120;2023-01-28T00:46:00;9.07;;;7.37;;
12910;SDS011;6523;49.758;6.120;2023-01-28T00:48:26;11.93;;;8.47;;
12910;SDS011;6523;49.758;6.120;2023-01-28T00:50:52;10.33;;;8.40;;
12910;SDS011;6523;49.758;6.120;2023-01-28T00:53:17;9.80;;;7.23;;
12910;SDS011;6523;49.758;6.120;2023-01-28T00:55:43;9.20;;;7.33;;
12910;SDS011;6523;49.758;6.120;2023-01-28T00:58:08;12.00;;;8.43;;
12910;SDS011;6523;49.758;6.120;2023-01-28T01:00:34;10.50;;;8.13;;
12910;SDS011;6523;49.758;6.120;2023-01-28T01:03:00;12.63;;;8.13;;
12910;SDS011;6523;49.758;6.120;2023-01-28T01:05:25;9.77;;;8.00;;
12910;SDS011;6523;49.758;6.120;2023-01-28T01:07:51;9.53;;;7.63;;
12910;SDS011;6523;49.758;6.120;2023-01-28T01:10:17;10.50;;;7.63;;
12910;SDS011;6523;49.758;6.120;2023-01-28T01:12:47;11.30;;;8.67;;
12910;SDS011;6523;49.758;6.120;2023-01-28T01:15:14;11.57;;;8.40;;
12910;SDS011;6523;49.758;6.120;2023-01-28T01:17:41;9.73;;;7.50;;
12910;SDS011;6523;49.758;6.120;2023-01-28T01:20:16;11.10;;;7.67;;
12910;SDS011;6523;49.758;6.120;2023-01-28T01:22:44;9.63;;;7.73;;
12910;SDS011;6523;49.758;6.120;2023-01-28T01:25:10;10.07;;;7.77;;
12910;SDS011;6523;49.758;6.120;2023-01-28T01:27:37;10.53;;;7.83;;
12910;SDS011;6523;49.758;6.120;2023-01-28T01:30:02;10.03;;;7.80;;
12910;SDS011;6523;49.758;6.120;2023-01-28T01:32:31;10.07;;;7.87;;
12910;SDS011;6523;49.758;6.120;2023-01-28T01:34:59;10.10;;;7.60;;
12910;SDS011;6523;49.758;6.120;2023-01-28T01:37:24;10.43;;;8.13;;
12910;SDS011;6523;49.758;6.120;2023-01-28T01:39:50;10.60;;;7.60;;
12910;SDS011;6523;49.758;6.120;2023-01-28T01:42:16;9.07;;;7.27;;
12910;SDS011;6523;49.758;6.120;2023-01-28T01:44:51;11.00;;;7.77;;
12910;SDS011;6523;49.758;6.120;2023-01-28T01:50:06;9.73;;;7.43;;
12910;SDS011;6523;49.758;6.120;2023-01-28T01:52:38;10.07;;;7.50;;
12910;SDS011;6523;49.758;6.120;2023-01-28T01:55:06;9.90;;;7.30;;
12910;SDS011;6523;49.758;6.120;2023-01-28T01:57:36;12.73;;;8.27;;
12910;SDS011;6523;49.758;6.120;2023-01-28T02:00:03;9.33;;;7.30;;
12910;SDS011;6523;49.758;6.120;2023-01-28T02:02:32;8.70;;;7.20;;
12910;SDS011;6523;49.758;6.120;2023-01-28T02:05:02;8.47;;;6.67;;
12910;SDS011;6523;49.758;6.120;2023-01-28T02:07:28;8.20;;;6.77;;
12910;SDS011;6523;49.758;6.120;2023-01-28T02:09:54;9.27;;;6.63;;
12910;SDS011;6523;49.758;6.120;2023-01-28T02:12:20;9.97;;;6.67;;
12910;SDS011;6523;49.758;6.120;2023-01-28T02:15:13;8.23;;;6.37;;
12910;SDS011;6523;49.758;6.120;2023-01-28T02:17:44;9.43;;;7.00;;
12910;SDS011;6523;49.758;6.120;2023-01-28T02:20:11;8.17;;;6.13;;
12910;SDS011;6523;49.758;6.120;2023-01-28T02:28:20;9.27;;;6.63;;
12910;SDS011;6523;49.758;6.120;2023-01-28T02:31:19;9.87;;;6.47;;
12910;SDS011;6523;49.758;6.120;2023-01-28T02:33:53;9.80;;;7.03;;
12910;SDS011;6523;49.758;6.120;2023-01-28T02:39:08;8.70;;;6.87;;
12910;SDS011;6523;49.758;6.120;2023-01-28T02:41:48;10.40;;;7.57;;
12910;SDS011;6523;49.758;6.120;2023-01-28T02:44:35;9.63;;;7.23;;
12910;SDS011;6523;49.758;6.120;2023-01-28T02:47:01;10.17;;;7.20;;
12910;SDS011;6523;49.758;6.120;2023-01-28T02:54:49;10.57;;;6.87;;
12910;SDS011;6523;49.758;6.120;2023-01-28T02:57:37;10.47;;;7.57;;
12910;SDS011;6523;49.758;6.120;2023-01-28T03:00:17;10.53;;;7.47;;
12910;SDS011;6523;49.758;6.120;2023-01-28T03:02:57;9.40;;;7.57;;
12910;SDS011;6523;49.758;6.120;2023-01-28T03:05:38;11.37;;;8.07;;
12910;SDS011;6523;49.758;6.120;2023-01-28T03:09:13;10.30;;;7.77;;
12910;SDS011;6523;49.758;6.120;2023-01-28T03:11:42;11.53;;;8.03;;
12910;SDS011;6523;49.758;6.120;2023-01-28T03:14:30;12.40;;;8.53;;
12910;SDS011;6523;49.758;6.120;2023-01-28T03:17:20;10.57;;;7.70;;
12910;SDS011;6523;49.758;6.120;2023-01-28T03:20:12;11.20;;;8.07;;
12910;SDS011;6523;49.758;6.120;2023-01-28T03:22:57;11.40;;;7.87;;
12910;SDS011;6523;49.758;6.120;2023-01-28T03:25:49;12.30;;;8.07;;
12910;SDS011;6523;49.758;6.120;2023-01-28T03:28:36;9.70;;;7.60;;
12910;SDS011;6523;49.758;6.120;2023-01-28T03:31:22;10.10;;;7.43;;
12910;SDS011;6523;49.758;6.120;2023-01-28T03:34:07;10.57;;;7.90;;
12910;SDS011;6523;49.758;6.120;2023-01-28T03:36:53;11.10;;;7.90;;
12910;SDS011;6523;49.758;6.120;2023-01-28T03:39:23;11.63;;;7.70;;
12910;SDS011;6523;49.758;6.120;2023-01-28T03:41:57;10.27;;;7.50;;
12910;SDS011;6523;49.758;6.120;2023-01-28T03:44:31;9.80;;;7.43;;
12910;SDS011;6523;49.758;6.120;2023-01-28T03:47:16;10.47;;;7.40;;
12910;SDS011;6523;49.758;6.120;2023-01-28T03:49:47;10.37;;;7.27;;
12910;SDS011;6523;49.758;6.120;2023-01-28T03:52:19;9.57;;;6.97;;
12910;SDS011;6523;49.758;6.120;2023-01-28T03:54:47;9.90;;;7.37;;
12910;SDS011;6523;49.758;6.120;2023-01-28T03:57:14;10.57;;;7.23;;
12910;SDS011;6523;49.758;6.120;2023-01-28T03:59:40;9.83;;;7.07;;
12910;SDS011;6523;49.758;6.120;2023-01-28T04:02:06;9.53;;;7.00;;
12910;SDS011;6523;49.758;6.120;2023-01-28T04:04:32;10.03;;;7.10;;
12910;SDS011;6523;49.758;6.120;2023-01-28T04:06:58;10.07;;;6.93;;
12910;SDS011;6523;49.758;6.120;2023-01-28T04:09:24;9.57;;;7.03;;
12910;SDS011;6523;49.758;6.120;2023-01-28T04:11:50;9.50;;;6.87;;
12910;SDS011;6523;49.758;6.120;2023-01-28T04:14:16;9.57;;;7.03;;
12910;SDS011;6523;49.758;6.120;2023-01-28T04:16:42;8.73;;;7.10;;
12910;SDS011;6523;49.758;6.120;2023-01-28T04:19:08;9.83;;;6.83;;
12910;SDS011;6523;49.758;6.120;2023-01-28T04:21:36;9.30;;;6.63;;
12910;SDS011;6523;49.758;6.120;2023-01-28T04:24:01;10.20;;;7.03;;
12910;SDS011;6523;49.758;6.120;2023-01-28T04:26:27;8.27;;;6.50;;
12910;SDS011;6523;49.758;6.120;2023-01-28T04:28:53;9.93;;;6.87;;
12910;SDS011;6523;49.758;6.120;2023-01-28T04:31:18;9.97;;;6.93;;
12910;SDS011;6523;49.758;6.120;2023-01-28T04:33:44;9.10;;;6.67;;
12910;SDS011;6523;49.758;6.120;2023-01-28T04:36:09;9.13;;;6.33;;
12910;SDS011;6523;49.758;6.120;2023-01-28T04:38:35;9.17;;;6.60;;
12910;SDS011;6523;49.758;6.120;2023-01-28T04:41:00;9.77;;;6.77;;
12910;SDS011;6523;49.758;6.120;2023-01-28T04:43:26;9.43;;;7.10;;
12910;SDS011;6523;49.758;6.120;2023-01-28T04:45:52;9.43;;;6.43;;
12910;SDS011;6523;49.758;6.120;2023-01-28T04:48:17;9.73;;;6.87;;
12910;SDS011;6523;49.758;6.120;2023-01-28T04:50:43;7.20;;;6.47;;
12910;SDS011;6523;49.758;6.120;2023-01-28T04:53:09;8.23;;;6.67;;
12910;SDS011;6523;49.758;6.120;2023-01-28T04:55:35;9.93;;;6.27;;
12910;SDS011;6523;49.758;6.120;2023-01-28T04:58:01;9.27;;;6.40;;
12910;SDS011;6523;49.758;6.120;2023-01-28T05:00:26;8.37;;;6.67;;
12910;SDS011;6523;49.758;6.120;2023-01-28T05:02:52;8.80;;;5.97;;
12910;SDS011;6523;49.758;6.120;2023-01-28T05:05:17;7.57;;;6.40;;
12910;SDS011;6523;49.758;6.120;2023-01-28T05:07:43;7.50;;;5.47;;
12910;SDS011;6523;49.758;6.120;2023-01-28T05:10:14;7.70;;;5.80;;
12910;SDS011;6523;49.758;6.120;2023-01-28T05:12:42;8.70;;;6.47;;
12910;SDS011;6523;49.758;6.120;2023-01-28T05:15:08;7.07;;;5.27;;
12910;SDS011;6523;49.758;6.120;2023-01-28T05:17:34;7.43;;;5.87;;
12910;SDS011;6523;49.758;6.120;2023-01-28T05:20:00;7.83;;;6.53;;
12910;SDS011;6523;49.758;6.120;2023-01-28T05:22:25;7.83;;;5.83;;
12910;SDS011;6523;49.758;6.120;2023-01-28T05:24:51;8.00;;;6.27;;
12910;SDS011;6523;49.758;6.120;2023-01-28T05:27:16;8.60;;;6.10;;
12910;SDS011;6523;49.758;6.120;2023-01-28T05:29:42;9.27;;;6.20;;
12910;SDS011;6523;49.758;6.120;2023-01-28T05:32:08;8.23;;;6.07;;
12910;SDS011;6523;49.758;6.120;2023-01-28T05:34:33;7.20;;;5.73;;
12910;SDS011;6523;49.758;6.120;2023-01-28T05:36:59;9.63;;;6.80;;
12910;SDS011;6523;49.758;6.120;2023-01-28T05:39:24;8.90;;;6.60;;
12910;SDS011;6523;49.758;6.120;2023-01-28T05:41:50;10.63;;;6.53;;
12910;SDS011;6523;49.758;6.120;2023-01-28T05:44:16;8.83;;;6.30;;
12910;SDS011;6523;49.758;6.120;2023-01-28T05:46:41;8.00;;;6.20;;
12910;SDS011;6523;49.758;6.120;2023-01-28T05:49:09;8.50;;;5.70;;
12910;SDS011;6523;49.758;6.120;2023-01-28T05:51:37;7.70;;;5.37;;
12910;SDS011;6523;49.758;6.120;2023-01-28T05:54:06;9.53;;;6.17;;
12910;SDS011;6523;49.758;6.120;2023-01-28T05:56:32;9.40;;;6.83;;
12910;SDS011;6523;49.758;6.120;2023-01-28T05:59:00;9.00;;;6.43;;
12910;SDS011;6523;49.758;6.120;2023-01-28T06:01:26;8.57;;;6.23;;
12910;SDS011;6523;49.758;6.120;2023-01-28T06:03:52;8.27;;;5.87;;
12910;SDS011;6523;49.758;6.120;2023-01-28T06:06:17;9.67;;;7.00;;
12910;SDS011;6523;49.758;6.120;2023-01-28T06:08:43;7.17;;;5.83;;
12910;SDS011;6523;49.758;6.120;2023-01-28T06:11:08;9.20;;;6.07;;
12910;SDS011;6523;49.758;6.120;2023-01-28T06:13:34;7.97;;;6.47;;
12910;SDS011;6523;49.758;6.120;2023-01-28T06:16:00;7.87;;;6.30;;
12910;SDS011;6523;49.758;6.120;2023-01-28T06:18:26;9.27;;;6.50;;
12910;SDS011;6523;49.758;6.120;2023-01-28T06:20:51;8.27;;;6.40;;
12910;SDS011;6523;49.758;6.120;2023-01-28T06:23:17;7.87;;;6.53;;
12910;SDS011;6523;49.758;6.120;2023-01-28T06:25:42;9.50;;;6.50;;
12910;SDS011;6523;49.758;6.120;2023-01-28T06:28:08;8.37;;;6.20;;
12910;SDS011;6523;49.758;6.120;2023-01-28T06:30:34;8.30;;;6.73;;
12910;SDS011;6523;49.758;6.120;2023-01-28T06:32:59;8.03;;;6.37;;
12910;SDS011;6523;49.758;6.120;2023-01-28T06:35:25;9.97;;;6.63;;
12910;SDS011;6523;49.758;6.120;2023-01-28T06:37:51;8.93;;;6.40;;
12910;SDS011;6523;49.758;6.120;2023-01-28T06:40:17;9.20;;;7.03;;
12910;SDS011;6523;49.758;6.120;2023-01-28T06:42:42;8.57;;;6.87;;
12910;SDS011;6523;49.758;6.120;2023-01-28T06:45:08;9.67;;;7.03;;
12910;SDS011;6523;49.758;6.120;2023-01-28T06:47:34;9.67;;;7.13;;
12910;SDS011;6523;49.758;6.120;2023-01-28T06:50:02;10.33;;;7.27;;
12910;SDS011;6523;49.758;6.120;2023-01-28T06:52:27;8.47;;;6.60;;
12910;SDS011;6523;49.758;6.120;2023-01-28T06:54:53;7.20;;;5.83;;
12910;SDS011;6523;49.758;6.120;2023-01-28T06:57:18;9.73;;;7.37;;
12910;SDS011;6523;49.758;6.120;2023-01-28T06:59:44;9.33;;;7.13;;
12910;SDS011;6523;49.758;6.120;2023-01-28T07:02:10;9.20;;;6.80;;
12910;SDS011;6523;49.758;6.120;2023-01-28T07:04:35;9.50;;;7.20;;
12910;SDS011;6523;49.758;6.120;2023-01-28T07:07:01;9.10;;;7.13;;
12910;SDS011;6523;49.758;6.120;2023-01-28T07:09:27;9.03;;;6.83;;
12910;SDS011;6523;49.758;6.120;2023-01-28T07:11:52;9.43;;;6.73;;
12910;SDS011;6523;49.758;6.120;2023-01-28T07:14:18;9.83;;;7.37;;
12910;SDS011;6523;49.758;6.120;2023-01-28T07:16:44;10.53;;;7.60;;
12910;SDS011;6523;49.758;6.120;2023-01-28T07:19:09;8.70;;;7.37;;
12910;SDS011;6523;49.758;6.120;2023-01-28T07:21:35;9.87;;;7.13;;
12910;SDS011;6523;49.758;6.120;2023-01-28T07:24:00;10.33;;;7.43;;
12910;SDS011;6523;49.758;6.120;2023-01-28T07:26:29;10.93;;;7.57;;
12910;SDS011;6523;49.758;6.120;2023-01-28T07:28:54;11.37;;;7.43;;
12910;SDS011;6523;49.758;6.120;2023-01-28T07:31:20;9.97;;;7.33;;
12910;SDS011;6523;49.758;6.120;2023-01-28T07:33:45;9.33;;;7.13;;
12910;SDS011;6523;49.758;6.120;2023-01-28T07:36:11;10.10;;;7.27;;
12910;SDS011;6523;49.758;6.120;2023-01-28T07:38:36;10.10;;;7.43;;
12910;SDS011;6523;49.758;6.120;2023-01-28T07:41:02;9.63;;;7.13;;
12910;SDS011;6523;49.758;6.120;2023-01-28T07:43:28;10.37;;;7.27;;
12910;SDS011;6523;49.758;6.120;2023-01-28T07:45:53;9.67;;;7.10;;
12910;SDS011;6523;49.758;6.120;2023-01-28T07:48:19;8.13;;;6.37;;
12910;SDS011;6523;49.758;6.120;2023-01-28T07:50:44;9.17;;;6.67;;
12910;SDS011;6523;49.758;6.120;2023-01-28T07:53:12;8.87;;;6.87;;
12910;SDS011;6523;49.758;6.120;2023-01-28T07:55:38;8.00;;;5.77;;
12910;SDS011;6523;49.758;6.120;2023-01-28T07:58:04;7.50;;;5.17;;
12910;SDS011;6523;49.758;6.120;2023-01-28T08:00:32;6.70;;;5.27;;
12910;SDS011;6523;49.758;6.120;2023-01-28T08:02:59;6.50;;;5.50;;
12910;SDS011;6523;49.758;6.120;2023-01-28T08:05:36;6.17;;;5.13;;
12910;SDS011;6523;49.758;6.120;2023-01-28T08:08:05;6.73;;;4.73;;
12910;SDS011;6523;49.758;6.120;2023-01-28T08:10:31;5.27;;;4.73;;
12910;SDS011;6523;49.758;6.120;2023-01-28T08:12:57;6.80;;;5.30;;
12910;SDS011;6523;49.758;6.120;2023-01-28T08:15:23;6.30;;;4.93;;
12910;SDS011;6523;49.758;6.120;2023-01-28T08:17:49;5.63;;;4.97;;
12910;SDS011;6523;49.758;6.120;2023-01-28T08:20:15;7.57;;;4.50;;
12910;SDS011;6523;49.758;6.120;2023-01-28T08:22:41;5.97;;;5.03;;
12910;SDS011;6523;49.758;6.120;2023-01-28T08:25:06;6.30;;;4.90;;
12910;SDS011;6523;49.758;6.120;2023-01-28T08:27:32;5.90;;;4.80;;
12910;SDS011;6523;49.758;6.120;2023-01-28T08:29:58;6.47;;;5.33;;
12910;SDS011;6523;49.758;6.120;2023-01-28T08:32:23;6.90;;;5.57;;
12910;SDS011;6523;49.758;6.120;2023-01-28T08:34:49;7.07;;;5.57;;
12910;SDS011;6523;49.758;6.120;2023-01-28T08:37:14;6.93;;;5.37;;
12910;SDS011;6523;49.758;6.120;2023-01-28T08:39:40;7.93;;;5.30;;
12910;SDS011;6523;49.758;6.120;2023-01-28T08:42:06;6.00;;;4.80;;
12910;SDS011;6523;49.758;6.120;2023-01-28T08:44:32;5.20;;;4.50;;
12910;SDS011;6523;49.758;6.120;2023-01-28T08:46:58;6.03;;;4.60;;
12910;SDS011;6523;49.758;6.120;2023-01-28T08:49:24;6.27;;;4.90;;
12910;SDS011;6523;49.758;6.120;2023-01-28T08:51:49;6.37;;;5.03;;
12910;SDS011;6523;49.758;6.120;2023-01-28T08:54:15;6.87;;;5.30;;
12910;SDS011;6523;49.758;6.120;2023-01-28T08:56:41;9.00;;;6.20;;
12910;SDS011;6523;49.758;6.120;2023-01-28T08:59:09;6.10;;;5.23;;
12910;SDS011;6523;49.758;6.120;2023-01-28T09:01:35;8.13;;;5.93;;
12910;SDS011;6523;49.758;6.120;2023-01-28T09:04:00;7.50;;;5.47;;
12910;SDS011;6523;49.758;6.120;2023-01-28T09:06:26;7.30;;;5.77;;
12910;SDS011;6523;49.758;6.120;2023-01-28T09:08:55;6.33;;;5.00;;
12910;SDS011;6523;49.758;6.120;2023-01-28T09:11:21;6.80;;;5.50;;
12910;SDS011;6523;49.758;6.120;2023-01-28T09:13:50;5.63;;;5.07;;
12910;SDS011;6523;49.758;6.120;2023-01-28T09:16:15;7.23;;;4.77;;
12910;SDS011;6523;49.758;6.120;2023-01-28T09:18:41;5.30;;;4.53;;
12910;SDS011;6523;49.758;6.120;2023-01-28T09:21:07;5.83;;;4.50;;
12910;SDS011;6523;49.758;6.120;2023-01-28T09:23:36;5.23;;;4.73;;
12910;SDS011;6523;49.758;6.120;2023-01-28T09:26:02;6.73;;;5.23;;
12910;SDS011;6523;49.758;6.120;2023-01-28T09:28:29;6.20;;;4.70;;
12910;SDS011;6523;49.758;6.120;2023-01-28T09:31:05;6.50;;;5.20;;
12910;SDS011;6523;49.758;6.120;2023-01-28T09:33:32;6.37;;;5.33;;
12910;SDS011;6523;49.758;6.120;2023-01-28T09:35:59;5.60;;;5.00;;
12910;SDS011;6523;49.758;6.120;2023-01-28T09:38:26;6.50;;;5.00;;
12910;SDS011;6523;49.758;6.120;2023-01-28T09:40:53;8.50;;;5.37;;
12910;SDS011;6523;49.758;6.120;2023-01-28T09:45:55;7.47;;;5.63;;
12910;SDS011;6523;49.758;6.120;2023-01-28T09:48:29;5.70;;;5.10;;
12910;SDS011;6523;49.758;6.120;2023-01-28T09:51:02;6.77;;;4.93;;
12910;SDS011;6523;49.758;6.120;2023-01-28T09:53:36;7.17;;;5.63;;
12910;SDS011;6523;49.758;6.120;2023-01-28T09:56:12;6.30;;;5.43;;
12910;SDS011;6523;49.758;6.120;2023-01-28T09:58:44;6.10;;;5.10;;
12910;SDS011;6523;49.758;6.120;2023-01-28T10:18:23;4.90;;;4.10;;
12910;SDS011;6523;49.758;6.120;2023-01-28T10:21:23;4.27;;;3.70;;
12910;SDS011;6523;49.758;6.120;2023-01-28T10:24:14;4.80;;;3.47;;
12910;SDS011;6523;49.758;6.120;2023-01-28T10:26:45;3.60;;;3.27;;
12910;SDS011;6523;49.758;6.120;2023-01-28T10:29:18;3.73;;;3.20;;
12910;SDS011;6523;49.758;6.120;2023-01-28T10:34:28;3.37;;;3.00;;
12910;SDS011;6523;49.758;6.120;2023-01-28T10:36:54;3.50;;;3.20;;
12910;SDS011;6523;49.758;6.120;2023-01-28T10:39:22;3.70;;;3.30;;
12910;SDS011;6523;49.758;6.120;2023-01-28T10:41:50;3.40;;;3.10;;
12910;SDS011;6523;49.758;6.120;2023-01-28T10:44:20;3.77;;;3.30;;
12910;SDS011;6523;49.758;6.120;2023-01-28T10:47:19;3.67;;;3.37;;
12910;SDS011;6523;49.758;6.120;2023-01-28T10:49:54;4.10;;;3.70;;
12910;SDS011;6523;49.758;6.120;2023-01-28T10:52:23;3.57;;;3.27;;
12910;SDS011;6523;49.758;6.120;2023-01-28T10:54:57;2.93;;;2.73;;
12910;SDS011;6523;49.758;6.120;2023-01-28T10:57:28;3.10;;;2.80;;
12910;SDS011;6523;49.758;6.120;2023-01-28T10:59:53;2.57;;;2.37;;
12910;SDS011;6523;49.758;6.120;2023-01-28T11:02:21;2.93;;;2.70;;
12910;SDS011;6523;49.758;6.120;2023-01-28T11:05:03;2.83;;;2.63;;
12910;SDS011;6523;49.758;6.120;2023-01-28T11:07:31;3.47;;;3.00;;
12910;SDS011;6523;49.758;6.120;2023-01-28T11:09:57;3.13;;;2.93;;
12910;SDS011;6523;49.758;6.120;2023-01-28T11:12:26;4.10;;;2.67;;
12910;SDS011;6523;49.758;6.120;2023-01-28T11:17:28;2.77;;;2.57;;
12910;SDS011;6523;49.758;6.120;2023-01-28T11:19:59;3.20;;;2.70;;
12910;SDS011;6523;49.758;6.120;2023-01-28T11:22:35;3.03;;;2.60;;
12910;SDS011;6523;49.758;6.120;2023-01-28T11:25:45;3.70;;;3.10;;
12910;SDS011;6523;49.758;6.120;2023-01-28T11:27:54;5.00;;;3.47;;
12910;SDS011;6523;49.758;6.120;2023-01-28T11:30:22;4.20;;;3.63;;
12910;SDS011;6523;49.758;6.120;2023-01-28T11:33:49;4.40;;;4.00;;
12910;SDS011;6523;49.758;6.120;2023-01-28T11:36:03;3.90;;;3.60;;
12910;SDS011;6523;49.758;6.120;2023-01-28T11:38:31;3.30;;;3.00;;
12910;SDS011;6523;49.758;6.120;2023-01-28T11:40:58;3.33;;;3.03;;
12910;SDS011;6523;49.758;6.120;2023-01-28T11:43:26;4.20;;;3.80;;
12910;SDS011;6523;49.758;6.120;2023-01-28T11:48:29;4.67;;;4.27;;
12910;SDS011;6523;49.758;6.120;2023-01-28T11:54:06;4.40;;;3.77;;
12910;SDS011;6523;49.758;6.120;2023-01-28T12:05:45;3.13;;;2.83;;
12910;SDS011;6523;49.758;6.120;2023-01-28T12:13:16;3.07;;;2.77;;
12910;SDS011;6523;49.758;6.120;2023-01-28T12:16:24;4.30;;;3.07;;
12910;SDS011;6523;49.758;6.120;2023-01-28T12:19:17;3.47;;;3.17;;
12910;SDS011;6523;49.758;6.120;2023-01-28T12:33:02;3.13;;;2.83;;
12910;SDS011;6523;49.758;6.120;2023-01-28T12:40:56;3.13;;;2.83;;
12910;SDS011;6523;49.758;6.120;2023-01-28T12:46:20;3.13;;;2.93;;
12910;SDS011;6523;49.758;6.120;2023-01-28T12:48:51;2.70;;;2.50;;
12910;SDS011;6523;49.758;6.120;2023-01-28T12:51:26;3.10;;;2.80;;
12910;SDS011;6523;49.758;6.120;2023-01-28T12:58:59;3.57;;;2.47;;
12910;SDS011;6523;49.758;6.120;2023-01-28T13:01:35;3.17;;;2.87;;
12910;SDS011;6523;49.758;6.120;2023-01-28T13:12:54;3.33;;;3.03;;
12910;SDS011;6523;49.758;6.120;2023-01-28T13:15:20;4.47;;;3.30;;
12910;SDS011;6523;49.758;6.120;2023-01-28T13:17:54;3.40;;;3.10;;
12910;SDS011;6523;49.758;6.120;2023-01-28T13:23:24;3.87;;;3.50;;
12910;SDS011;6523;49.758;6.120;2023-01-28T13:28:44;3.20;;;2.90;;
12910;SDS011;6523;49.758;6.120;2023-01-28T13:31:15;3.70;;;2.50;;
12910;SDS011;6523;49.758;6.120;2023-01-28T13:33:45;3.73;;;3.33;;
12910;SDS011;6523;49.758;6.120;2023-01-28T13:36:41;3.27;;;2.97;;
12910;SDS011;6523;49.758;6.120;2023-01-28T13:39:17;4.80;;;3.30;;
12910;SDS011;6523;49.758;6.120;2023-01-28T13:44:19;5.50;;;4.53;;
12910;SDS011;6523;49.758;6.120;2023-01-28T13:46:59;5.53;;;4.63;;
12910;SDS011;6523;49.758;6.120;2023-01-28T13:49:46;5.17;;;4.67;;
12910;SDS011;6523;49.758;6.120;2023-01-28T13:52:36;5.73;;;5.13;;
12910;SDS011;6523;49.758;6.120;2023-01-28T14:00:46;7.13;;;6.03;;
12910;SDS011;6523;49.758;6.120;2023-01-28T14:09:53;7.00;;;5.33;;
12910;SDS011;6523;49.758;6.120;2023-01-28T14:17:43;9.03;;;6.50;;
12910;SDS011;6523;49.758;6.120;2023-01-28T14:20:21;6.30;;;4.80;;
12910;SDS011;6523;49.758;6.120;2023-01-28T14:22:50;7.00;;;5.10;;
12910;SDS011;6523;49.758;6.120;2023-01-28T14:31:02;8.33;;;5.80;;
12910;SDS011;6523;49.758;6.120;2023-01-28T14:33:40;7.40;;;5.67;;
12910;SDS011;6523;49.758;6.120;2023-01-28T14:36:09;7.70;;;5.83;;
12910;SDS011;6523;49.758;6.120;2023-01-28T14:38:37;9.37;;;6.77;;
12910;SDS011;6523;49.758;6.120;2023-01-28T14:41:05;10.87;;;8.00;;
12910;SDS011;6523;49.758;6.120;2023-01-28T14:43:32;10.93;;;8.10;;
12910;SDS011;6523;49.758;6.120;2023-01-28T14:46:07;11.33;;;8.57;;
12910;SDS011;6523;49.758;6.120;2023-01-28T14:51:56;13.13;;;8.83;;
12910;SDS011;6523;49.758;6.120;2023-01-28T14:54:28;12.20;;;9.17;;
12910;SDS011;6523;49.758;6.120;2023-01-28T14:57:19;12.73;;;8.50;;
12910;SDS011;6523;49.758;6.120;2023-01-28T14:59:55;11.40;;;8.57;;
12910;SDS011;6523;49.758;6.120;2023-01-28T15:02:29;11.47;;;8.47;;
12910;SDS011;6523;49.758;6.120;2023-01-28T15:05:06;12.90;;;9.10;;
12910;SDS011;6523;49.758;6.120;2023-01-28T15:07:43;15.50;;;9.70;;
12910;SDS011;6523;49.758;6.120;2023-01-28T15:12:40;12.57;;;8.83;;
12910;SDS011;6523;49.758;6.120;2023-01-28T15:17:53;11.70;;;8.23;;
12910;SDS011;6523;49.758;6.120;2023-01-28T15:20:25;11.93;;;8.73;;
12910;SDS011;6523;49.758;6.120;2023-01-28T15:22:52;10.87;;;8.50;;
12910;SDS011;6523;49.758;6.120;2023-01-28T15:25:19;13.23;;;9.07;;
12910;SDS011;6523;49.758;6.120;2023-01-28T15:27:46;12.80;;;8.90;;
12910;SDS011;6523;49.758;6.120;2023-01-28T15:30:19;10.63;;;8.87;;
12910;SDS011;6523;49.758;6.120;2023-01-28T15:32:55;13.23;;;10.03;;
12910;SDS011;6523;49.758;6.120;2023-01-28T15:35:36;12.50;;;8.23;;
12910;SDS011;6523;49.758;6.120;2023-01-28T15:38:02;10.83;;;7.50;;
12910;SDS011;6523;49.758;6.120;2023-01-28T15:40:28;10.93;;;7.93;;
12910;SDS011;6523;49.758;6.120;2023-01-28T15:42:55;9.97;;;7.80;;
12910;SDS011;6523;49.758;6.120;2023-01-28T15:45:23;12.70;;;8.10;;
12910;SDS011;6523;49.758;6.120;2023-01-28T15:47:50;9.53;;;7.20;;
12910;SDS011;6523;49.758;6.120;2023-01-28T15:50:25;10.13;;;7.87;;
12910;SDS011;6523;49.758;6.120;2023-01-28T15:52:51;11.00;;;8.73;;
12910;SDS011;6523;49.758;6.120;2023-01-28T15:57:51;10.00;;;7.90;;
12910;SDS011;6523;49.758;6.120;2023-01-28T16:00:20;10.63;;;7.60;;
12910;SDS011;6523;49.758;6.120;2023-01-28T16:02:48;11.43;;;7.67;;
12910;SDS011;6523;49.758;6.120;2023-01-28T16:05:26;10.47;;;7.33;;
12910;SDS011;6523;49.758;6.120;2023-01-28T16:08:00;12.83;;;8.20;;
12910;SDS011;6523;49.758;6.120;2023-01-28T16:10:28;11.57;;;8.70;;
12910;SDS011;6523;49.758;6.120;2023-01-28T16:12:57;10.47;;;7.87;;
12910;SDS011;6523;49.758;6.120;2023-01-28T16:15:33;9.73;;;8.07;;
12910;SDS011;6523;49.758;6.120;2023-01-28T16:18:02;11.03;;;7.83;;
12910;SDS011;6523;49.758;6.120;2023-01-28T16:20:29;11.47;;;7.93;;
12910;SDS011;6523;49.758;6.120;2023-01-28T16:22:56;11.40;;;8.23;;
12910;SDS011;6523;49.758;6.120;2023-01-28T16:27:52;15.13;;;10.37;;
12910;SDS011;6523;49.758;6.120;2023-01-28T16:30:19;13.27;;;8.67;;
12910;SDS011;6523;49.758;6.120;2023-01-28T16:32:44;13.37;;;9.30;;
12910;SDS011;6523;49.758;6.120;2023-01-28T16:35:14;11.67;;;8.10;;
12910;SDS011;6523;49.758;6.120;2023-01-28T16:37:42;11.00;;;8.77;;
12910;SDS011;6523;49.758;6.120;2023-01-28T16:40:09;13.43;;;8.87;;
12910;SDS011;6523;49.758;6.120;2023-01-28T16:42:40;16.27;;;10.43;;
12910;SDS011;6523;49.758;6.120;2023-01-28T16:45:06;15.07;;;10.57;;
12910;SDS011;6523;49.758;6.120;2023-01-28T16:47:36;14.97;;;10.40;;
12910;SDS011;6523;49.758;6.120;2023-01-28T16:50:01;15.30;;;10.60;;
12910;SDS011;6523;49.758;6.120;2023-01-28T16:52:27;13.27;;;8.87;;
12910;SDS011;6523;49.758;6.120;2023-01-28T16:54:53;14.27;;;9.20;;
12910;SDS011;6523;49.758;6.120;2023-01-28T16:57:19;14.43;;;10.27;;
12910;SDS011;6523;49.758;6.120;2023-01-28T16:59:46;13.33;;;9.90;;
12910;SDS011;6523;49.758;6.120;2023-01-28T17:02:12;19.10;;;10.23;;
12910;SDS011;6523;49.758;6.120;2023-01-28T17:04:39;13.03;;;9.50;;
12910;SDS011;6523;49.758;6.120;2023-01-28T17:07:05;14.37;;;9.63;;
12910;SDS011;6523;49.758;6.120;2023-01-28T17:09:31;12.77;;;9.33;;
12910;SDS011;6523;49.758;6.120;2023-01-28T17:11:56;15.73;;;10.63;;
12910;SDS011;6523;49.758;6.120;2023-01-28T17:14:22;16.40;;;10.67;;
12910;SDS011;6523;49.758;6.120;2023-01-28T17:16:48;17.27;;;11.60;;
12910;SDS011;6523;49.758;6.120;2023-01-28T17:19:16;16.77;;;10.70;;
12910;SDS011;6523;49.758;6.120;2023-01-28T17:21:42;17.47;;;10.27;;
12910;SDS011;6523;49.758;6.120;2023-01-28T17:24:08;15.00;;;10.47;;
12910;SDS011;6523;49.758;6.120;2023-01-28T17:26:34;15.73;;;10.60;;
12910;SDS011;6523;49.758;6.120;2023-01-28T17:29:03;15.37;;;10.83;;
12910;SDS011;6523;49.758;6.120;2023-01-28T17:31:29;12.57;;;9.23;;